Strona główna
METAR-TAF:

METAR-TAF

Lotnisko :

Linz, Austria

Port lotniczy Linz

Szerokość geograficzna: 48-14N, Długość geograficzna: 014-11E, wysokość: 298 m

Aktualna obserwacja pogody

Raport powstał 11 minut temu, godzina 09:20 UTC
Wiatr 12 kt od wschód, zmienny między wschodnio-północny wschód i południowy wschód
Temperatura -7°C
Wilgotność 53%
Ciśnienie 1025 hPa
Widzialność 10 km lub więcej
Mało chmury na wysokości 2000 ft
Przerywane chmury na wysokości 3000 ft

METAR: LOWL 250920Z 09012KT 060V130 9999 FEW020 BKN030 M07/M15 Q1025 NOSIG

czas: 10:31 (09:31 UTC)

Prognoza

Raport powstał 4 godziny i 16 minut temu, godzina 05:15 UTC
Prognoza ważna od 25 godzina 06 UTC do 26 godzina 06 UTC
Wiatr 10 kt od wschodnio-północny wschód
Widzialność 10 km lub więcej
Rozproszone chmury na wysokości 4000 ft
Przejściowo
od 25 godzina 08 UTC do 25 godzina 15 UTC
Wiatr 16 kt od wschód

TAF: LOWL 250515Z 2506/2606 07010KT 9999 SCT040 TXM05/2515Z TNM10/2606Z TEMPO 2508/2515 09016KT

Obserwacja i prognoza pogody dla ponad 4000 lotnisk (raport METAR i TAF).

Dostępne stacje oznaczono żółtymi i czerwonymi punktami na mapie.

Najedź kursorem aby zobaczyć nazwę stacji.

Kliknij aby zobaczyć obserwacje i prognozy pogody.

Aby zmienić mapę: kliknij na zielony przycisk z czarnym krzyżykiem, aby powiększyć; na zielony przycisk z myślnikiem, aby pomniejszyć; na zielone strzałki, aby przejść do map sąsiednich.


METAR-TAF: